createdAt,value
2016-09-22T00:00:58.842Z,0
2016-09-22T00:01:58.862Z,0
2016-09-22T00:02:58.887Z,0
2016-09-22T00:03:58.908Z,0
2016-09-22T00:04:58.927Z,0
2016-09-22T00:05:58.950Z,0
2016-09-22T00:06:58.974Z,0
2016-09-22T00:07:59.000Z,0
2016-09-22T00:08:59.020Z,0
2016-09-22T00:09:59.033Z,0
2016-09-22T00:10:59.065Z,0
2016-09-22T00:11:59.085Z,0
2016-09-22T00:12:59.436Z,0
2016-09-22T00:13:59.153Z,0
2016-09-22T00:14:59.151Z,0
2016-09-22T00:15:59.169Z,0
2016-09-22T00:16:59.187Z,0
2016-09-22T00:17:59.210Z,0
2016-09-22T00:18:59.229Z,0
2016-09-22T00:19:59.272Z,0
2016-09-22T00:20:59.266Z,0
2016-09-22T00:21:59.291Z,0
2016-09-22T00:22:59.329Z,0
2016-09-22T00:23:59.339Z,0
2016-09-22T00:24:59.361Z,0
2016-09-22T00:25:59.374Z,0
2016-09-22T00:26:59.404Z,0
2016-09-22T00:27:59.422Z,0
2016-09-22T00:28:59.444Z,0
2016-09-22T00:29:59.466Z,0
2016-09-22T00:30:59.484Z,0
2016-09-22T00:31:59.505Z,0
2016-09-22T00:32:59.521Z,0
2016-09-22T00:33:59.549Z,0
2016-09-22T00:34:59.566Z,0
2016-09-22T00:35:59.591Z,0
2016-09-22T00:36:59.613Z,0
2016-09-22T00:37:59.636Z,0
2016-09-22T00:38:59.655Z,0
2016-09-22T00:39:59.672Z,0
2016-09-22T00:40:59.696Z,0
2016-09-22T00:41:59.743Z,0
2016-09-22T00:42:59.751Z,0
2016-09-22T00:43:59.761Z,0
2016-09-22T00:44:59.784Z,0
2016-09-22T00:45:59.805Z,0
2016-09-22T00:46:59.827Z,0
2016-09-22T00:47:59.849Z,0
2016-09-22T00:48:59.863Z,0
2016-09-22T00:49:59.895Z,0
2016-09-22T00:50:59.905Z,0
2016-09-22T00:51:59.931Z,0
2016-09-22T00:52:59.959Z,0
2016-09-22T00:53:59.974Z,0
2016-09-22T00:54:59.998Z,0
2016-09-22T00:56:00.018Z,0
2016-09-22T00:57:00.039Z,0
2016-09-22T00:58:00.055Z,0
2016-09-22T00:59:00.080Z,0
2016-09-22T01:00:00.100Z,0
2016-09-22T01:01:00.121Z,0
2016-09-22T01:02:00.144Z,0
2016-09-22T01:03:00.165Z,0
2016-09-22T01:04:00.194Z,0
2016-09-22T01:05:00.213Z,0
2016-09-22T01:06:00.229Z,0
2016-09-22T01:07:00.248Z,0
2016-09-22T01:08:00.391Z,0
2016-09-22T01:09:00.403Z,0
2016-09-22T01:10:00.404Z,0
2016-09-22T01:11:00.424Z,0
2016-09-22T01:12:00.474Z,0
2016-09-22T01:13:00.552Z,0
2016-09-22T01:14:00.549Z,0
2016-09-22T01:15:00.559Z,0
2016-09-22T01:16:00.566Z,0
2016-09-22T01:17:00.576Z,0
2016-09-22T01:18:00.595Z,0
2016-09-22T01:19:00.718Z,0
2016-09-22T01:20:00.733Z,0
2016-09-22T01:21:00.756Z,0
2016-09-22T01:22:00.750Z,0
2016-09-22T01:23:00.758Z,0
2016-09-22T01:24:00.760Z,0
2016-09-22T01:25:00.772Z,0
2016-09-22T01:26:00.748Z,0
2016-09-22T01:27:00.764Z,0
2016-09-22T01:28:00.752Z,0
2016-09-22T01:29:00.755Z,0
2016-09-22T01:30:01.072Z,0
2016-09-22T01:31:00.771Z,0
2016-09-22T01:32:00.791Z,0
2016-09-22T01:33:00.805Z,0
2016-09-22T01:34:00.828Z,0
2016-09-22T01:35:00.843Z,0
2016-09-22T01:36:00.869Z,0
2016-09-22T01:37:00.887Z,0
2016-09-22T01:38:00.921Z,0
2016-09-22T01:39:00.930Z,0
2016-09-22T01:40:00.959Z,0
2016-09-22T01:41:00.981Z,0
2016-09-22T01:42:00.998Z,0
2016-09-22T01:43:01.017Z,0
2016-09-22T01:44:01.033Z,0
2016-09-22T01:45:01.060Z,0
2016-09-22T01:46:01.082Z,0
2016-09-22T01:47:01.097Z,0
2016-09-22T01:48:01.130Z,0
2016-09-22T01:49:01.148Z,0
2016-09-22T01:50:01.164Z,0
2016-09-22T01:51:01.182Z,0
2016-09-22T01:52:01.207Z,0
2016-09-22T01:53:01.223Z,0
2016-09-22T01:54:01.273Z,0
2016-09-22T01:55:01.299Z,0
2016-09-22T01:56:01.339Z,0
2016-09-22T01:57:01.330Z,0
2016-09-22T01:58:01.351Z,0
2016-09-22T01:59:01.353Z,0
2016-09-22T02:00:01.370Z,0
2016-09-22T02:01:01.721Z,0
2016-09-22T02:02:01.423Z,0
2016-09-22T02:03:01.438Z,0
2016-09-22T02:04:01.459Z,0
2016-09-22T02:05:01.487Z,0
2016-09-22T02:06:01.501Z,0
2016-09-22T02:07:01.519Z,0
2016-09-22T02:08:01.544Z,0
2016-09-22T02:09:01.566Z,0
2016-09-22T02:10:01.589Z,0
2016-09-22T02:11:01.610Z,0
2016-09-22T02:12:01.626Z,0
2016-09-22T02:13:01.650Z,0
2016-09-22T02:14:01.671Z,0
2016-09-22T02:15:01.737Z,0
2016-09-22T02:16:01.710Z,0
2016-09-22T02:17:01.733Z,0
2016-09-22T02:18:01.747Z,0
2016-09-22T02:19:01.775Z,0
2016-09-22T02:20:01.795Z,0
2016-09-22T02:21:01.815Z,0
2016-09-22T02:22:01.836Z,0
2016-09-22T02:23:01.857Z,0
2016-09-22T02:24:01.880Z,0
2016-09-22T02:25:02.000Z,0
2016-09-22T02:26:01.925Z,0
2016-09-22T02:27:01.938Z,0
2016-09-22T02:28:01.967Z,0
2016-09-22T02:29:01.988Z,0
2016-09-22T02:30:02.009Z,0
2016-09-22T02:31:02.027Z,0
2016-09-22T02:32:02.044Z,0
2016-09-22T02:33:02.084Z,0
2016-09-22T02:34:02.087Z,0
2016-09-22T02:35:02.110Z,0
2016-09-22T02:36:02.143Z,0
2016-09-22T02:37:02.154Z,0
2016-09-22T02:38:02.179Z,0
2016-09-22T02:39:02.190Z,0
2016-09-22T02:40:02.214Z,0
2016-09-22T02:41:02.543Z,0
2016-09-22T02:42:02.257Z,0
2016-09-22T02:43:02.276Z,0
2016-09-22T02:44:02.425Z,0
2016-09-22T02:45:02.435Z,0
2016-09-22T02:46:02.449Z,0
2016-09-22T02:47:02.461Z,0
2016-09-22T02:48:02.612Z,0
2016-09-22T02:49:02.623Z,0
2016-09-22T02:50:02.669Z,0
2016-09-22T02:51:02.646Z,0
2016-09-22T02:52:02.675Z,0
2016-09-22T02:53:02.652Z,0
2016-09-22T02:54:02.665Z,0
2016-09-22T02:55:02.710Z,0
2016-09-22T02:56:02.772Z,0
2016-09-22T02:57:02.684Z,0
2016-09-22T02:58:02.743Z,0
2016-09-22T02:59:02.928Z,0
2016-09-22T03:00:02.753Z,0
2016-09-22T03:01:02.765Z,0
2016-09-22T03:02:02.992Z,0
2016-09-22T03:03:02.790Z,0
2016-09-22T03:04:02.809Z,0
2016-09-22T03:05:02.823Z,0
2016-09-22T03:06:02.864Z,0
2016-09-22T03:07:02.848Z,0
2016-09-22T03:08:02.823Z,0
2016-09-22T03:09:02.820Z,0
2016-09-22T03:10:02.849Z,0
2016-09-22T03:11:02.868Z,0
2016-09-22T03:12:02.908Z,0
2016-09-22T03:13:02.906Z,0
2016-09-22T03:14:02.944Z,0
2016-09-22T03:15:02.953Z,0
2016-09-22T03:16:03.292Z,0
2016-09-22T03:17:02.990Z,0
2016-09-22T03:18:03.021Z,0
2016-09-22T03:19:03.038Z,0
2016-09-22T03:20:03.374Z,0
2016-09-22T03:21:03.074Z,0
2016-09-22T03:22:03.406Z,0
2016-09-22T03:23:03.113Z,0
2016-09-22T03:24:03.139Z,0
2016-09-22T03:25:03.172Z,0
2016-09-22T03:26:03.186Z,0
2016-09-22T03:27:03.204Z,0
2016-09-22T03:28:03.237Z,0
2016-09-22T03:29:03.246Z,0
2016-09-22T03:30:03.268Z,0
2016-09-22T03:31:03.286Z,0
2016-09-22T03:32:03.307Z,0
2016-09-22T03:33:03.345Z,0
2016-09-22T03:34:03.361Z,0
2016-09-22T03:35:03.372Z,0
2016-09-22T03:36:03.394Z,0
2016-09-22T03:37:03.416Z,0
2016-09-22T03:38:03.435Z,0
2016-09-22T03:39:03.476Z,0
2016-09-22T03:40:03.471Z,0
2016-09-22T03:41:03.492Z,0
2016-09-22T03:42:03.521Z,0
2016-09-22T03:43:03.535Z,0
2016-09-22T03:44:03.557Z,0
2016-09-22T03:45:03.572Z,0
2016-09-22T03:46:03.598Z,0
2016-09-22T03:47:03.614Z,0
2016-09-22T03:48:03.653Z,0
2016-09-22T03:49:03.669Z,0
2016-09-22T03:50:03.680Z,0
2016-09-22T03:51:03.701Z,0
2016-09-22T03:52:03.717Z,0
2016-09-22T03:53:03.741Z,0
2016-09-22T03:54:03.766Z,0
2016-09-22T03:55:03.791Z,0
2016-09-22T03:56:03.828Z,0
2016-09-22T03:57:03.821Z,0
2016-09-22T03:58:03.843Z,0
2016-09-22T03:59:03.863Z,0
2016-09-22T04:00:03.888Z,0
2016-09-22T04:01:03.908Z,0
2016-09-22T04:02:03.926Z,0
2016-09-22T04:03:03.951Z,0
2016-09-22T04:04:03.964Z,0
2016-09-22T04:05:03.990Z,0
2016-09-22T04:06:04.011Z,0
2016-09-22T04:07:04.032Z,0
2016-09-22T04:08:04.053Z,0
2016-09-22T04:09:04.069Z,0
2016-09-22T04:10:04.100Z,0
2016-09-22T04:11:04.109Z,0
2016-09-22T04:12:04.133Z,0
2016-09-22T04:13:04.163Z,0
2016-09-22T04:14:04.183Z,0
2016-09-22T04:15:04.203Z,0
2016-09-22T04:16:04.213Z,0
2016-09-22T04:17:04.648Z,0
2016-09-22T04:18:04.259Z,0
2016-09-22T04:19:04.277Z,0
2016-09-22T04:20:04.297Z,0
2016-09-22T04:21:04.440Z,0
2016-09-22T04:22:04.453Z,0
2016-09-22T04:23:04.453Z,0
2016-09-22T04:24:04.608Z,0
2016-09-22T04:25:04.607Z,0
2016-09-22T04:26:04.611Z,0
2016-09-22T04:27:04.620Z,0
2016-09-22T04:28:04.628Z,0
2016-09-22T04:29:04.637Z,0
2016-09-22T04:30:04.842Z,0
2016-09-22T04:31:04.653Z,0
2016-09-22T04:32:04.681Z,0
2016-09-22T04:33:04.659Z,0
2016-09-22T04:34:04.801Z,0
2016-09-22T04:35:04.818Z,0
2016-09-22T04:36:04.821Z,0
2016-09-22T04:37:04.728Z,4
2016-09-22T04:38:04.736Z,0
2016-09-22T04:39:04.783Z,0
2016-09-22T04:40:04.879Z,4
2016-09-22T04:41:04.813Z,0
2016-09-22T04:42:05.147Z,4
2016-09-22T04:43:04.830Z,8
2016-09-22T04:44:04.840Z,4
2016-09-22T04:45:04.914Z,4
2016-09-22T04:46:04.860Z,8
2016-09-22T04:47:04.855Z,8
2016-09-22T04:48:05.021Z,8
2016-09-22T04:49:04.895Z,8
2016-09-22T04:50:05.030Z,12
2016-09-22T04:51:04.938Z,16
2016-09-22T04:52:05.143Z,16
2016-09-22T04:53:05.072Z,20
2016-09-22T04:54:05.013Z,20
2016-09-22T04:55:05.053Z,24
2016-09-22T04:56:05.197Z,28
2016-09-22T04:57:05.063Z,28
2016-09-22T04:58:05.079Z,32
2016-09-22T04:59:05.214Z,36
2016-09-22T05:00:05.840Z,36
2016-09-22T05:01:05.231Z,36
2016-09-22T05:02:05.255Z,40
2016-09-22T05:03:05.262Z,44
2016-09-22T05:04:05.272Z,48
2016-09-22T05:05:05.280Z,52
2016-09-22T05:06:05.289Z,56
2016-09-22T05:07:05.264Z,60
2016-09-22T05:08:05.303Z,68
2016-09-22T05:09:05.314Z,68
2016-09-22T05:10:05.331Z,72
2016-09-22T05:11:05.346Z,76
2016-09-22T05:12:05.370Z,80
2016-09-22T05:13:05.379Z,84
2016-09-22T05:14:05.417Z,88
2016-09-22T05:15:05.433Z,92
2016-09-22T05:16:05.463Z,100
2016-09-22T05:17:05.581Z,104
2016-09-22T05:18:05.583Z,108
2016-09-22T05:19:05.520Z,112
2016-09-22T05:20:05.609Z,120
2016-09-22T05:21:05.549Z,124
2016-09-22T05:22:05.587Z,128
2016-09-22T05:23:05.587Z,132
2016-09-22T05:24:05.625Z,136
2016-09-22T05:25:05.629Z,140
2016-09-22T05:26:05.671Z,144
2016-09-22T05:27:05.757Z,148
2016-09-22T05:28:05.759Z,148
2016-09-22T05:29:05.833Z,156
2016-09-22T05:30:05.784Z,160
2016-09-22T05:31:05.757Z,164
2016-09-22T05:32:05.781Z,172
2016-09-22T05:33:05.797Z,176
2016-09-22T05:34:05.817Z,180
2016-09-22T05:35:05.954Z,188
2016-09-22T05:36:05.857Z,196
2016-09-22T05:37:05.882Z,200
2016-09-22T05:38:05.902Z,204
2016-09-22T05:39:05.926Z,212
2016-09-22T05:40:06.057Z,220
2016-09-22T05:41:05.958Z,224
2016-09-22T05:42:05.982Z,232
2016-09-22T05:43:06.004Z,240
2016-09-22T05:44:06.023Z,244
2016-09-22T05:45:06.045Z,252
2016-09-22T05:46:06.065Z,260
2016-09-22T05:47:06.081Z,260
2016-09-22T05:48:06.108Z,268
2016-09-22T05:49:06.127Z,276
2016-09-22T05:50:06.150Z,276
2016-09-22T05:51:06.167Z,280
2016-09-22T05:52:06.206Z,276
2016-09-22T05:53:06.209Z,280
2016-09-22T05:54:06.230Z,280
2016-09-22T05:55:06.249Z,276
2016-09-22T05:56:06.268Z,280
2016-09-22T05:57:06.295Z,280
2016-09-22T05:58:06.308Z,284
2016-09-22T05:59:06.326Z,288
2016-09-22T06:00:06.354Z,292
2016-09-22T06:01:06.371Z,296
2016-09-22T06:02:06.390Z,300
2016-09-22T06:03:06.415Z,308
2016-09-22T06:04:06.428Z,308
2016-09-22T06:05:06.457Z,316
2016-09-22T06:06:06.479Z,320
2016-09-22T06:07:06.506Z,328
2016-09-22T06:08:06.514Z,332
2016-09-22T06:09:06.533Z,332
2016-09-22T06:10:06.559Z,340
2016-09-22T06:11:06.578Z,344
2016-09-22T06:12:06.615Z,352
2016-09-22T06:13:06.614Z,360
2016-09-22T06:14:06.650Z,360
2016-09-22T06:15:06.659Z,364
2016-09-22T06:16:06.677Z,368
2016-09-22T06:17:06.702Z,372
2016-09-22T06:18:06.724Z,372
2016-09-22T06:19:06.739Z,372
2016-09-22T06:20:06.775Z,376
2016-09-22T06:21:06.774Z,384
2016-09-22T06:22:06.820Z,392
2016-09-22T06:23:06.820Z,392
2016-09-22T06:24:06.846Z,396
2016-09-22T06:25:06.859Z,400
2016-09-22T06:26:06.881Z,404
2016-09-22T06:27:06.901Z,412
2016-09-22T06:28:06.944Z,420
2016-09-22T06:29:06.956Z,428
2016-09-22T06:30:06.969Z,432
2016-09-22T06:31:06.989Z,440
2016-09-22T06:32:07.008Z,444
2016-09-22T06:33:07.024Z,448
2016-09-22T06:34:07.058Z,452
2016-09-22T06:35:07.062Z,452
2016-09-22T06:36:07.095Z,452
2016-09-22T06:37:07.107Z,456
2016-09-22T06:38:07.125Z,460
2016-09-22T06:39:07.149Z,468
2016-09-22T06:40:07.190Z,472
2016-09-22T06:41:07.191Z,480
2016-09-22T06:42:07.229Z,484
2016-09-22T06:43:07.232Z,488
2016-09-22T06:44:07.246Z,492
2016-09-22T06:45:07.267Z,496
2016-09-22T06:46:07.294Z,504
2016-09-22T06:47:07.309Z,508
2016-09-22T06:48:07.353Z,508
2016-09-22T06:49:07.355Z,512
2016-09-22T06:50:07.377Z,520
2016-09-22T06:51:07.406Z,524
2016-09-22T06:52:07.409Z,520
2016-09-22T06:53:07.434Z,520
2016-09-22T06:54:07.464Z,516
2016-09-22T06:55:07.479Z,512
2016-09-22T06:56:07.539Z,516
2016-09-22T06:57:07.513Z,520
2016-09-22T06:58:07.555Z,520
2016-09-22T06:59:07.558Z,520
2016-09-22T07:00:07.577Z,516
2016-09-22T07:01:07.595Z,508
2016-09-22T07:02:07.624Z,504
2016-09-22T07:03:07.640Z,500
2016-09-22T07:04:07.668Z,496
2016-09-22T07:05:07.685Z,496
2016-09-22T07:06:07.703Z,496
2016-09-22T07:07:07.721Z,496
2016-09-22T07:08:07.756Z,496
2016-09-22T07:09:07.767Z,496
2016-09-22T07:10:07.790Z,496
2016-09-22T07:11:07.804Z,492
2016-09-22T07:12:07.823Z,492
2016-09-22T07:13:07.852Z,496
2016-09-22T07:14:07.868Z,492
2016-09-22T07:15:07.888Z,492
2016-09-22T07:16:07.933Z,488
2016-09-22T07:17:07.927Z,484
2016-09-22T07:18:07.951Z,488
2016-09-22T07:19:07.970Z,484
2016-09-22T07:20:07.993Z,484
2016-09-22T07:21:08.013Z,484
2016-09-22T07:22:08.032Z,488
2016-09-22T07:23:08.056Z,496
2016-09-22T07:24:08.135Z,504
2016-09-22T07:25:08.099Z,508
2016-09-22T07:26:08.118Z,512
2016-09-22T07:27:08.137Z,512
2016-09-22T07:28:08.165Z,512
2016-09-22T07:29:08.185Z,512
2016-09-22T07:30:08.205Z,508
2016-09-22T07:31:08.222Z,504
2016-09-22T07:32:08.246Z,500
2016-09-22T07:33:08.262Z,496
2016-09-22T07:34:08.286Z,496
2016-09-22T07:35:08.309Z,504
2016-09-22T07:36:08.324Z,504
2016-09-22T07:37:08.351Z,508
2016-09-22T07:38:08.369Z,516
2016-09-22T07:39:08.394Z,520
2016-09-22T07:40:08.423Z,516
2016-09-22T07:41:08.451Z,520
2016-09-22T07:42:08.467Z,516
2016-09-22T07:43:08.480Z,512
2016-09-22T07:44:08.500Z,504
2016-09-22T07:45:08.520Z,496
2016-09-22T07:46:08.543Z,492
2016-09-22T07:47:08.566Z,484
2016-09-22T07:48:08.585Z,480
2016-09-22T07:49:08.623Z,480
2016-09-22T07:50:08.626Z,484
2016-09-22T07:51:08.652Z,484
2016-09-22T07:52:08.673Z,488
2016-09-22T07:53:08.690Z,496
2016-09-22T07:54:08.821Z,500
2016-09-22T07:55:08.853Z,504
2016-09-22T07:56:08.864Z,504
2016-09-22T07:57:08.872Z,504
2016-09-22T07:58:08.871Z,500
2016-09-22T07:59:08.880Z,504
2016-09-22T08:00:08.888Z,500
2016-09-22T08:01:08.898Z,496
2016-09-22T08:02:08.905Z,492
2016-09-22T08:03:08.908Z,492
2016-09-22T08:04:09.052Z,492
2016-09-22T08:05:08.982Z,496
2016-09-22T08:06:08.991Z,496
2016-09-22T08:07:08.998Z,496
2016-09-22T08:08:09.116Z,496
2016-09-22T08:09:09.124Z,496
2016-09-22T08:10:09.133Z,496
2016-09-22T08:11:09.166Z,496
2016-09-22T08:12:09.164Z,484
2016-09-22T08:13:09.174Z,480
2016-09-22T08:14:09.183Z,480
2016-09-22T08:15:09.192Z,480
2016-09-22T08:16:09.200Z,484
2016-09-22T08:17:09.224Z,488
2016-09-22T08:18:09.228Z,492
2016-09-22T08:19:09.252Z,492
2016-09-22T08:20:09.274Z,492
2016-09-22T08:21:09.295Z,492
2016-09-22T08:22:09.317Z,488
2016-09-22T08:23:09.338Z,492
2016-09-22T08:24:09.361Z,492
2016-09-22T08:25:09.390Z,488
2016-09-22T08:26:09.408Z,484
2016-09-22T08:27:09.430Z,480
2016-09-22T08:28:09.450Z,480
2016-09-22T08:29:09.469Z,484
2016-09-22T08:30:09.491Z,484
2016-09-22T08:31:09.514Z,488
2016-09-22T08:32:09.536Z,492
2016-09-22T08:33:09.559Z,496
2016-09-22T08:34:09.578Z,496
2016-09-22T08:35:09.608Z,500
2016-09-22T08:36:09.641Z,500
2016-09-22T08:37:09.646Z,504
2016-09-22T08:38:09.675Z,504
2016-09-22T08:39:09.696Z,508
2016-09-22T08:40:09.725Z,504
2016-09-22T08:41:09.732Z,508
2016-09-22T08:42:09.757Z,508
2016-09-22T08:43:09.779Z,516
2016-09-22T08:44:09.800Z,520
2016-09-22T08:45:09.828Z,524
2016-09-22T08:46:09.847Z,528
2016-09-22T08:47:09.875Z,532
2016-09-22T08:48:09.894Z,536
2016-09-22T08:49:10.288Z,544
2016-09-22T08:50:09.938Z,548
2016-09-22T08:51:09.955Z,556
2016-09-22T08:52:09.984Z,564
2016-09-22T08:53:10.004Z,572
2016-09-22T08:54:10.026Z,584
2016-09-22T08:55:10.047Z,600
2016-09-22T08:56:10.074Z,612
2016-09-22T08:57:10.099Z,640
2016-09-22T08:58:10.112Z,672
2016-09-22T08:59:10.142Z,712
2016-09-22T09:00:10.158Z,756
2016-09-22T09:01:10.184Z,780
2016-09-22T09:02:10.210Z,868
2016-09-22T09:03:10.234Z,1012
2016-09-22T09:04:10.261Z,1176
2016-09-22T09:05:10.277Z,1228
2016-09-22T09:06:10.292Z,1176
2016-09-22T09:07:10.332Z,1004
2016-09-22T09:08:10.342Z,900
2016-09-22T09:09:10.365Z,776
2016-09-22T09:10:10.400Z,708
2016-09-22T09:11:10.427Z,696
2016-09-22T09:12:10.858Z,708
2016-09-22T09:13:10.458Z,744
2016-09-22T09:14:10.497Z,788
2016-09-22T09:15:10.511Z,896
2016-09-22T09:16:10.532Z,1040
2016-09-22T09:17:10.549Z,1120
2016-09-22T09:18:10.582Z,1124
2016-09-22T09:19:10.596Z,1040
2016-09-22T09:20:10.666Z,928
2016-09-22T09:21:10.643Z,776
2016-09-22T09:22:10.665Z,744
2016-09-22T09:23:10.805Z,676
2016-09-22T09:24:10.822Z,684
2016-09-22T09:25:10.824Z,712
2016-09-22T09:26:10.986Z,800
2016-09-22T09:27:10.996Z,840
2016-09-22T09:28:11.014Z,856
2016-09-22T09:29:11.020Z,876
2016-09-22T09:30:11.026Z,900
2016-09-22T09:31:11.036Z,912
2016-09-22T09:32:11.036Z,912
2016-09-22T09:33:11.045Z,916
2016-09-22T09:34:11.093Z,924
2016-09-22T09:35:11.093Z,940
2016-09-22T09:36:11.100Z,996
2016-09-22T09:37:11.110Z,1064
2016-09-22T09:38:11.118Z,1032
2016-09-22T09:39:11.127Z,1008
2016-09-22T09:40:11.168Z,1032
2016-09-22T09:41:11.196Z,960
2016-09-22T09:42:11.203Z,908
2016-09-22T09:43:11.216Z,988
2016-09-22T09:44:11.223Z,1044
2016-09-22T09:45:11.224Z,1100
2016-09-22T09:46:11.233Z,1180
2016-09-22T09:47:11.251Z,1240
2016-09-22T09:48:11.274Z,1176
2016-09-22T09:49:11.294Z,1064
2016-09-22T09:50:11.323Z,944
2016-09-22T09:51:11.347Z,888
2016-09-22T09:52:11.384Z,960
2016-09-22T09:53:11.391Z,1052
2016-09-22T09:54:11.417Z,1132
2016-09-22T09:55:11.445Z,1264
2016-09-22T09:56:11.486Z,1336
2016-09-22T09:57:11.499Z,1360
2016-09-22T09:58:11.511Z,1380
2016-09-22T09:59:11.554Z,1424
2016-09-22T10:00:11.564Z,1312
2016-09-22T10:01:11.595Z,1276
2016-09-22T10:02:11.925Z,1284
2016-09-22T10:03:11.640Z,1344
2016-09-22T10:04:11.679Z,1348
2016-09-22T10:05:11.704Z,1248
2016-09-22T10:06:11.711Z,1248
2016-09-22T10:07:11.739Z,1144
2016-09-22T10:08:11.762Z,1132
2016-09-22T10:09:11.785Z,1080
2016-09-22T10:10:11.811Z,1152
2016-09-22T10:11:11.840Z,1180
2016-09-22T10:12:11.858Z,1356
2016-09-22T10:13:11.885Z,1432
2016-09-22T10:14:11.921Z,1544
2016-09-22T10:15:11.942Z,1460
2016-09-22T10:16:11.956Z,1328
2016-09-22T10:17:11.983Z,1172
2016-09-22T10:18:12.006Z,1064
2016-09-22T10:19:12.034Z,1128
2016-09-22T10:20:12.054Z,1068
2016-09-22T10:21:12.150Z,1124
2016-09-22T10:22:12.103Z,1120
2016-09-22T10:23:12.129Z,1132
2016-09-22T10:24:12.161Z,1112
2016-09-22T10:25:12.399Z,1072
2016-09-22T10:26:12.213Z,1056
2016-09-22T10:27:12.229Z,1052
2016-09-22T10:28:12.258Z,1080
2016-09-22T10:29:12.281Z,1088
2016-09-22T10:30:12.304Z,1108
2016-09-22T10:31:12.348Z,1128
2016-09-22T10:32:12.356Z,1124
2016-09-22T10:33:12.415Z,1156
2016-09-22T10:34:12.407Z,1160
2016-09-22T10:35:12.428Z,1164
2016-09-22T10:36:12.769Z,1176
2016-09-22T10:37:12.480Z,1124
2016-09-22T10:38:12.601Z,1204
2016-09-22T10:39:12.535Z,1216
2016-09-22T10:40:12.558Z,1220
2016-09-22T10:41:12.585Z,1252
2016-09-22T10:42:12.612Z,1280
2016-09-22T10:43:12.641Z,1288
2016-09-22T10:44:12.653Z,1332
2016-09-22T10:45:12.703Z,1352
2016-09-22T10:46:12.708Z,1344
2016-09-22T10:47:12.746Z,1376
2016-09-22T10:48:12.761Z,1372
2016-09-22T10:49:12.790Z,1388
2016-09-22T10:50:12.820Z,1332
2016-09-22T10:51:12.839Z,1324
2016-09-22T10:52:12.865Z,1304
2016-09-22T10:53:12.899Z,1316
2016-09-22T10:54:12.918Z,1296
2016-09-22T10:55:12.939Z,1276
2016-09-22T10:56:12.970Z,1252
2016-09-22T10:57:12.996Z,1272
2016-09-22T10:58:13.021Z,1256
2016-09-22T10:59:13.053Z,1252
2016-09-22T11:00:13.073Z,1244
2016-09-22T11:01:13.101Z,1232
2016-09-22T11:02:13.121Z,1256
2016-09-22T11:03:13.149Z,1284
2016-09-22T11:04:13.172Z,1328
2016-09-22T11:05:13.514Z,1372
2016-09-22T11:06:13.223Z,1400
2016-09-22T11:07:13.263Z,1436
2016-09-22T11:08:13.280Z,1440
2016-09-22T11:09:13.309Z,1432
2016-09-22T11:10:13.331Z,1424
2016-09-22T11:11:13.364Z,1424
2016-09-22T11:12:13.383Z,1404
2016-09-22T11:13:13.407Z,1364
2016-09-22T11:14:13.445Z,1376
2016-09-22T11:15:13.468Z,1380
2016-09-22T11:16:13.504Z,1376
2016-09-22T11:17:13.529Z,1352
2016-09-22T11:18:13.541Z,1384
2016-09-22T11:19:13.587Z,1444
2016-09-22T11:20:13.594Z,1376
2016-09-22T11:21:13.627Z,1456
2016-09-22T11:22:13.653Z,1460
2016-09-22T11:23:13.671Z,1480
2016-09-22T11:24:13.819Z,1516
2016-09-22T11:25:13.823Z,1512
2016-09-22T11:26:13.854Z,1524
2016-09-22T11:27:14.015Z,1548
2016-09-22T11:28:14.023Z,1572
2016-09-22T11:29:14.029Z,1604
2016-09-22T11:30:14.035Z,1620
2016-09-22T11:31:14.046Z,1664
2016-09-22T11:32:14.055Z,1708
2016-09-22T11:33:14.064Z,1784
2016-09-22T11:34:14.064Z,1824
2016-09-22T11:35:14.209Z,1844
2016-09-22T11:36:14.119Z,1876
2016-09-22T11:37:14.131Z,2020
2016-09-22T11:38:14.172Z,2296
2016-09-22T11:39:14.176Z,2452
2016-09-22T11:40:14.210Z,2640
2016-09-22T11:41:14.213Z,2840
2016-09-22T11:42:14.225Z,2860
2016-09-22T11:43:14.224Z,2720
2016-09-22T11:44:14.238Z,2488
2016-09-22T11:45:14.267Z,2372
2016-09-22T11:46:14.292Z,2324
2016-09-22T11:47:14.316Z,2308
2016-09-22T11:48:14.346Z,2360
2016-09-22T11:49:14.368Z,2504
2016-09-22T11:50:14.400Z,2484
2016-09-22T11:51:14.423Z,2400
2016-09-22T11:52:14.460Z,2380
2016-09-22T11:53:14.485Z,2424
2016-09-22T11:54:14.506Z,2448
2016-09-22T11:55:14.535Z,2420
2016-09-22T11:56:14.558Z,2444
2016-09-22T11:57:14.619Z,2428
2016-09-22T11:58:14.619Z,2620
2016-09-22T11:59:14.641Z,2556
2016-09-22T12:00:14.676Z,2368
2016-09-22T12:01:14.697Z,2160
2016-09-22T12:02:14.745Z,2088
2016-09-22T12:03:14.755Z,2052
2016-09-22T12:04:14.783Z,1988
2016-09-22T12:05:14.811Z,1960
2016-09-22T12:06:14.835Z,1912
2016-09-22T12:07:14.863Z,1908
2016-09-22T12:08:14.895Z,1976
2016-09-22T12:09:14.918Z,2052
2016-09-22T12:10:14.948Z,1960
2016-09-22T12:11:14.975Z,1932
2016-09-22T12:12:15.002Z,1888
2016-09-22T12:13:15.030Z,1832
2016-09-22T12:14:15.059Z,1716
2016-09-22T12:15:15.085Z,1692
2016-09-22T12:16:15.119Z,1760
2016-09-22T12:17:15.145Z,1888
2016-09-22T12:18:15.165Z,2056
2016-09-22T12:19:15.196Z,2120
2016-09-22T12:20:15.221Z,2128
2016-09-22T12:21:15.252Z,2200
2016-09-22T12:22:15.284Z,2456
2016-09-22T12:23:15.311Z,2496
2016-09-22T12:24:15.343Z,2460
2016-09-22T12:25:15.365Z,2208
2016-09-22T12:26:15.397Z,2096
2016-09-22T12:27:15.421Z,2212
2016-09-22T12:28:15.448Z,2312
2016-09-22T12:29:15.473Z,2368
2016-09-22T12:30:15.504Z,2292
2016-09-22T12:31:15.537Z,2112
2016-09-22T12:32:15.563Z,1952
2016-09-22T12:33:15.587Z,1940
2016-09-22T12:34:15.627Z,2032
2016-09-22T12:35:15.646Z,1916
2016-09-22T12:36:15.688Z,1836
2016-09-22T12:37:15.703Z,1724
2016-09-22T12:38:15.735Z,1680
2016-09-22T12:39:15.764Z,1676
2016-09-22T12:40:16.190Z,1644
2016-09-22T12:41:15.936Z,1628
2016-09-22T12:42:16.065Z,1684
2016-09-22T12:43:16.077Z,1680
2016-09-22T12:44:16.084Z,1620
2016-09-22T12:45:16.232Z,1608
2016-09-22T12:46:16.416Z,1556
2016-09-22T12:47:16.104Z,1516
2016-09-22T12:48:16.111Z,1472
2016-09-22T12:49:16.251Z,1360
2016-09-22T12:50:16.275Z,1344
2016-09-22T12:51:16.287Z,1436
2016-09-22T12:52:16.274Z,1484
2016-09-22T12:53:16.243Z,1524
2016-09-22T12:54:16.258Z,1640
2016-09-22T12:55:16.311Z,1760
2016-09-22T12:56:16.264Z,1748
2016-09-22T12:57:16.279Z,1760
2016-09-22T12:58:16.297Z,1820
2016-09-22T12:59:16.337Z,1820
2016-09-22T13:00:16.351Z,1892
2016-09-22T13:01:16.376Z,2120
2016-09-22T13:02:16.420Z,2356
2016-09-22T13:03:16.748Z,2496
2016-09-22T13:04:16.462Z,2528
2016-09-22T13:05:16.509Z,2448
2016-09-22T13:06:16.525Z,2268
2016-09-22T13:07:16.551Z,2168
2016-09-22T13:08:16.575Z,2268
2016-09-22T13:09:16.609Z,2408
2016-09-22T13:10:16.632Z,2400
2016-09-22T13:11:16.657Z,2380
2016-09-22T13:12:16.694Z,2388
2016-09-22T13:13:16.715Z,2200
2016-09-22T13:14:16.752Z,1956
2016-09-22T13:15:16.784Z,1704
2016-09-22T13:16:16.802Z,1628
2016-09-22T13:17:16.829Z,1424
2016-09-22T13:18:16.882Z,1236
2016-09-22T13:19:16.887Z,1072
2016-09-22T13:20:16.912Z,1016
2016-09-22T13:21:16.945Z,1072
2016-09-22T13:22:16.976Z,1200
2016-09-22T13:23:17.003Z,1332
2016-09-22T13:24:17.029Z,1376
2016-09-22T13:25:17.058Z,1388
2016-09-22T13:26:17.410Z,1368
2016-09-22T13:27:17.118Z,1340
2016-09-22T13:28:17.141Z,1304
2016-09-22T13:29:17.173Z,1240
2016-09-22T13:30:17.201Z,1168
2016-09-22T13:31:17.224Z,1136
2016-09-22T13:32:17.272Z,1136
2016-09-22T13:33:17.287Z,1172
2016-09-22T13:34:17.318Z,1208
2016-09-22T13:35:17.339Z,1264
2016-09-22T13:36:17.369Z,1220
2016-09-22T13:37:17.397Z,1172
2016-09-22T13:38:17.425Z,1168
2016-09-22T13:39:17.458Z,1116
2016-09-22T13:40:17.480Z,1136
2016-09-22T13:41:17.510Z,1088
2016-09-22T13:42:17.537Z,1080
2016-09-22T13:43:17.570Z,1044
2016-09-22T13:44:17.598Z,1024
2016-09-22T13:45:17.622Z,1020
2016-09-22T13:46:17.653Z,1088
2016-09-22T13:47:17.681Z,1164
2016-09-22T13:48:17.714Z,1192
2016-09-22T13:49:17.738Z,1116
2016-09-22T13:50:17.783Z,1056
2016-09-22T13:51:17.793Z,1032
2016-09-22T13:52:17.841Z,1000
2016-09-22T13:53:17.862Z,1008
2016-09-22T13:54:17.873Z,1056
2016-09-22T13:55:17.912Z,956
2016-09-22T13:56:17.941Z,964
2016-09-22T13:57:17.966Z,1004
2016-09-22T13:58:18.002Z,1008